Time;durP1;ratioP1;P1;durP2;ratioP2;P2;SDS_P1;SDS_P2;PMS_P1;PMS_P2;Temp;Humidity;BMP_temperature;BMP_pressure;BME280_temperature;BME280_humidity;BME280_pressure;Samples;Min_cycle;Max_cycle;Signal;HPM_P1;HPM_P2
2024/01/02 00:01:15;;;;;;;2.35;0.80;;;12.30;99.90;;;;;;7379953;19;20027;-77
2024/01/02 00:03:43;;;;;;;1.42;0.68;;;12.50;99.90;;;;;;7381212;19;20023;-79
2024/01/02 00:06:19;;;;;;;6.47;0.80;;;12.70;99.90;;;;;;7403473;19;20066;-77
2024/01/02 00:08:48;;;;;;;1.10;0.70;;;12.40;99.90;;;;;;7380318;19;20050;-77
2024/01/02 00:11:17;;;;;;;2.20;0.73;;;12.40;99.90;;;;;;7380907;19;20007;-77
2024/01/02 00:13:46;;;;;;;1.52;0.75;;;12.20;99.90;;;;;;7381579;19;20003;-77
2024/01/02 00:16:14;;;;;;;4.38;0.80;;;12.30;99.90;;;;;;7381961;19;20003;-78
2024/01/02 00:18:43;;;;;;;2.10;0.50;;;12.50;99.90;;;;;;7388668;19;20357;-78
2024/01/02 00:21:12;;;;;;;1.60;0.73;;;12.40;99.90;;;;;;7399732;19;20067;-78
2024/01/02 00:23:43;;;;;;;3.75;0.70;;;12.40;99.90;;;;;;7381089;19;20003;-77
2024/01/02 00:26:12;;;;;;;1.30;0.85;;;12.50;99.90;;;;;;7380744;19;20011;-78
2024/01/02 00:28:40;;;;;;;2.60;0.85;;;12.40;99.90;;;;;;7379681;19;20011;-78
2024/01/02 00:31:12;;;;;;;9.52;1.08;;;12.40;99.90;;;;;;7380504;19;20245;-78
2024/01/02 00:33:41;;;;;;;2.30;0.65;;;12.50;99.90;;;;;;7402597;19;20007;-79
2024/01/02 00:36:13;;;;;;;4.47;0.77;;;12.30;99.90;;;;;;7380200;19;20007;-77
2024/01/02 00:38:44;;;;;;;;;;;12.40;99.90;;;;;;7384284;19;20002;-78
2024/01/02 00:41:12;;;;;;;3.88;0.82;;;12.30;99.90;;;;;;7380136;19;20242;-77
2024/01/02 00:43:41;;;;;;;2.25;0.65;;;12.50;99.90;;;;;;7379952;19;20016;-77
2024/01/02 00:46:10;;;;;;;3.25;0.98;;;12.50;99.90;;;;;;7380158;19;20010;-78
2024/01/02 00:48:38;;;;;;;3.10;0.80;;;12.30;99.90;;;;;;7400211;19;20358;-79
2024/01/02 00:51:07;;;;;;;0.60;0.40;;;12.60;99.90;;;;;;7380270;19;20046;-78
2024/01/02 00:53:36;;;;;;;1.83;0.80;;;12.30;99.90;;;;;;7379410;19;20379;-78
2024/01/02 00:56:07;;;;;;;2.92;0.70;;;12.50;99.90;;;;;;7378427;19;20369;-77
2024/01/02 00:58:36;;;;;;;5.35;1.00;;;12.30;99.90;;;;;;7379439;19;20422;-77
2024/01/02 01:01:05;;;;;;;3.78;0.70;;;12.20;99.90;;;;;;7378755;19;20002;-77
2024/01/02 01:03:34;;;;;;;2.10;0.80;;;12.40;99.90;;;;;;7401801;19;20027;-77
2024/01/02 01:06:03;;;;;;;4.47;1.00;;;12.50;99.90;;;;;;7377503;19;20007;-77
2024/01/02 01:08:31;;;;;;;0.88;0.57;;;12.30;99.90;;;;;;7378719;19;20291;-78
2024/01/02 01:11:00;;;;;;;2.95;0.60;;;12.50;99.90;;;;;;7380057;19;20007;-77
2024/01/02 01:13:31;;;;;;;1.75;0.55;;;12.40;99.90;;;;;;7379161;19;20078;-78
2024/01/02 01:16:00;;;;;;;6.40;0.90;;;12.40;99.90;;;;;;7379365;19;20020;-77
2024/01/02 01:18:29;;;;;;;1.83;0.60;;;12.30;99.90;;;;;;7400287;19;20349;-77
2024/01/02 01:20:57;;;;;;;1.65;0.65;;;12.30;99.90;;;;;;7377410;19;20058;-77
2024/01/02 01:23:28;;;;;;;1.38;0.60;;;12.30;99.90;;;;;;7378379;19;20014;-76
2024/01/02 01:25:57;;;;;;;0.32;0.30;;;12.40;99.90;;;;;;7378447;19;20014;-77
2024/01/02 01:28:26;;;;;;;2.88;0.73;;;12.50;99.90;;;;;;7378011;19;20010;-76
2024/01/02 01:30:57;;;;;;;2.72;0.70;;;12.30;99.90;;;;;;7377156;19;20478;-76
2024/01/02 01:33:27;;;;;;;3.67;0.68;;;12.60;99.90;;;;;;7399947;19;20002;-76
2024/01/02 01:35:55;;;;;;;4.32;0.88;;;12.70;99.90;;;;;;7377707;19;20358;-77
2024/01/02 01:38:24;;;;;;;1.58;0.57;;;12.70;99.90;;;;;;7388681;19;20010;-77
2024/01/02 01:40:53;;;;;;;3.80;0.65;;;12.50;99.90;;;;;;7391259;19;20020;-77
2024/01/02 01:43:21;;;;;;;7.10;1.02;;;12.20;99.90;;;;;;7389568;19;20011;-78
2024/01/02 01:45:50;;;;;;;3.78;0.88;;;12.70;99.90;;;;;;7396370;19;20027;-76
2024/01/02 01:48:22;;;;;;;1.27;0.73;;;12.70;99.90;;;;;;7409144;19;20011;-76
2024/01/02 01:50:52;;;;;;;3.13;0.90;;;12.40;99.90;;;;;;7378214;19;20545;-76
2024/01/02 01:53:21;;;;;;;3.78;0.80;;;12.30;99.90;;;;;;7377902;19;20370;-76
2024/01/02 01:55:51;;;;;;;2.55;0.45;;;12.40;99.90;;;;;;7376060;19;20010;-76
2024/01/02 01:58:20;;;;;;;3.80;0.63;;;12.40;99.90;;;;;;7377380;19;20003;-76
2024/01/02 02:00:49;;;;;;;2.08;0.57;;;12.50;99.90;;;;;;7398213;19;20063;-76
2024/01/02 02:03:21;;;;;;;2.05;0.60;;;12.30;99.90;;;;;;7376205;19;20014;-76
2024/01/02 02:05:50;;;;;;;2.78;0.68;;;12.10;99.90;;;;;;7376549;19;20013;-78
2024/01/02 02:08:19;;;;;;;3.25;0.95;;;12.30;99.90;;;;;;7376221;19;20518;-76
2024/01/02 02:10:47;;;;;;;4.93;0.70;;;12.50;99.90;;;;;;7376710;19;20078;-76
2024/01/02 02:13:16;;;;;;;5.55;0.82;;;12.60;99.90;;;;;;7376871;19;20024;-76
2024/01/02 02:15:48;;;;;;;1.52;0.70;;;12.60;99.90;;;;;;7398359;19;20019;-76
2024/01/02 02:18:17;;;;;;;3.60;0.90;;;12.60;99.90;;;;;;7379630;19;19998;-76
2024/01/02 02:20:49;;;;;;;3.10;0.85;;;12.90;99.90;;;;;;7382934;19;20003;-76
2024/01/02 02:23:21;;;;;;;2.40;0.80;;;13.00;99.90;;;;;;7384843;19;20027;-76
2024/01/02 02:25:50;;;;;;;4.35;0.60;;;12.80;99.90;;;;;;7384679;19;20259;-76
2024/01/02 02:28:21;;;;;;;3.25;0.90;;;12.80;99.90;;;;;;7384051;19;20252;-75
2024/01/02 02:30:50;;;;;;;2.83;0.70;;;12.80;99.90;;;;;;7408499;19;20393;-76
2024/01/02 02:33:19;;;;;;;2.78;0.75;;;12.80;99.90;;;;;;7383313;19;20011;-77
2024/01/02 02:35:48;;;;;;;6.38;1.00;;;12.90;99.90;;;;;;7384016;19;20023;-77
2024/01/02 02:38:16;;;;;;;2.50;0.73;;;12.90;99.90;;;;;;7384576;19;20062;-77
2024/01/02 02:40:48;;;;;;;10.45;1.10;;;12.90;99.90;;;;;;7384658;19;20010;-78
2024/01/02 02:43:16;;;;;;;2.30;0.65;;;12.90;99.90;;;;;;7385227;19;20027;-77
2024/01/02 02:45:45;;;;;;;5.32;1.10;;;12.80;99.90;;;;;;7403927;19;20097;-78
2024/01/02 02:48:14;;;;;;;2.50;0.80;;;12.70;99.90;;;;;;7383459;19;20002;-78
2024/01/02 02:50:42;;;;;;;4.97;0.80;;;12.50;99.90;;;;;;7383164;19;20354;-79
2024/01/02 02:53:11;;;;;;;3.50;0.90;;;12.40;99.90;;;;;;7383707;19;20342;-77
2024/01/02 02:55:40;;;;;;;5.45;0.90;;;12.60;99.90;;;;;;7384267;19;20006;-77
2024/01/02 02:58:11;;;;;;;3.58;0.80;;;12.40;99.90;;;;;;7381560;19;20289;-77
2024/01/02 03:00:40;;;;;;;6.00;0.80;;;12.30;99.90;;;;;;7405702;19;20023;-77
2024/01/02 03:03:09;;;;;;;4.30;1.10;;;12.80;99.90;;;;;;7386367;19;20078;-77
2024/01/02 03:05:37;;;;;;;7.22;1.08;;;12.50;99.90;;;;;;7385850;19;20291;-76
2024/01/02 03:08:06;;;;;;;3.17;0.88;;;12.60;99.90;;;;;;7383915;19;20067;-76
2024/01/02 03:10:35;;;;;;;4.32;1.20;;;12.70;99.90;;;;;;7381411;19;20015;-77
2024/01/02 03:13:04;;;;;;;4.10;1.00;;;12.50;99.90;;;;;;7383544;19;20054;-76
2024/01/02 03:15:35;;;;;;;3.38;1.00;;;12.50;99.90;;;;;;7405588;19;20023;-76
2024/01/02 03:18:04;;;;;;;7.78;1.10;;;12.50;99.90;;;;;;7384517;19;20386;-76
2024/01/02 03:20:32;;;;;;;4.20;1.08;;;12.10;99.90;;;;;;7383470;19;20039;-77
2024/01/02 03:23:01;;;;;;;3.25;0.77;;;12.20;99.90;;;;;;7382226;19;20107;-76
2024/01/02 03:25:30;;;;;;;2.92;1.00;;;12.50;99.90;;;;;;7382655;19;20002;-76
2024/01/02 03:27:58;;;;;;;4.85;0.98;;;12.50;99.90;;;;;;7404682;19;20007;-76
2024/01/02 03:30:28;;;;;;;10.88;1.38;;;12.50;99.90;;;;;;7380865;19;20115;-77
2024/01/02 03:33:00;;;;;;;4.78;0.90;;;12.50;99.90;;;;;;7381651;19;20074;-77
2024/01/02 03:35:28;;;;;;;3.10;1.23;;;12.20;99.90;;;;;;7382426;19;20016;-77
2024/01/02 03:37:57;;;;;;;2.25;0.73;;;12.30;99.90;;;;;;7381136;19;20006;-77
2024/01/02 03:40:28;;;;;;;3.72;0.73;;;12.40;99.90;;;;;;7380392;19;20028;-77
2024/01/02 03:42:59;;;;;;;8.00;1.13;;;12.50;99.90;;;;;;7403673;19;20011;-77
2024/01/02 03:45:30;;;;;;;2.22;0.88;;;12.40;99.90;;;;;;7386224;19;20019;-76
2024/01/02 03:48:02;;;;;;;3.28;0.73;;;12.70;99.90;;;;;;7394086;19;20017;-77
2024/01/02 03:50:33;;;;;;;5.80;0.68;;;12.40;99.90;;;;;;7393376;19;20007;-77
2024/01/02 03:53:02;;;;;;;6.32;0.82;;;12.30;99.90;;;;;;7394480;19;20003;-76
2024/01/02 03:55:34;;;;;;;2.08;0.60;;;12.60;99.90;;;;;;7387616;19;21183;-76
2024/01/02 03:58:02;;;;;;;5.30;0.95;;;12.40;99.90;;;;;;7402868;19;20050;-76
2024/01/02 04:00:33;;;;;;;6.25;0.93;;;12.60;99.90;;;;;;7381969;19;20030;-76
2024/01/02 04:03:04;;;;;;;5.40;0.90;;;12.80;99.90;;;;;;7380770;19;20058;-76
2024/01/02 04:05:33;;;;;;;;;;;12.90;99.90;;;;;;7382430;19;20264;-76
2024/01/02 04:08:01;;;;;;;3.45;0.90;;;13.00;99.90;;;;;;7381004;19;19962;-77
2024/01/02 04:10:30;;;;;;;3.42;0.70;;;13.00;99.90;;;;;;7383528;19;20028;-77
2024/01/02 04:12:59;;;;;;;2.22;0.70;;;12.80;99.90;;;;;;7405114;19;20035;-76
2024/01/02 04:15:27;;;;;;;4.45;0.88;;;12.80;99.90;;;;;;7382532;19;20024;-77
2024/01/02 04:17:56;;;;;;;2.72;0.82;;;12.80;99.90;;;;;;7381207;19;20673;-77
2024/01/02 04:20:27;;;;;;;0.50;0.50;;;12.50;99.90;;;;;;7381709;19;19998;-77
2024/01/02 04:22:58;;;;;;;7.10;1.02;;;12.70;99.90;;;;;;7380896;19;20011;-77
2024/01/02 04:25:27;;;;;;;3.00;0.70;;;12.80;99.90;;;;;;7381602;19;20075;-76
2024/01/02 04:27:57;;;;;;;0.85;0.52;;;12.70;99.90;;;;;;7402549;19;20015;-76
2024/01/02 04:30:26;;;;;;;4.22;0.77;;;12.80;99.90;;;;;;7380755;19;20007;-77
2024/01/02 04:32:55;;;;;;;5.32;0.85;;;12.40;99.90;;;;;;7380191;19;20007;-77
2024/01/02 04:35:26;;;;;;;6.70;0.85;;;12.40;99.90;;;;;;7380027;19;19999;-76
2024/01/02 04:37:55;;;;;;;1.70;0.45;;;12.40;99.90;;;;;;7380813;19;20019;-77
2024/01/02 04:40:23;;;;;;;3.20;0.80;;;12.40;99.90;;;;;;7378937;19;20027;-77
2024/01/02 04:42:52;;;;;;;2.50;1.02;;;12.40;99.90;;;;;;7400345;19;20031;-76
2024/01/02 04:45:21;;;;;;;5.70;1.20;;;12.50;99.90;;;;;;7379636;19;20015;-77
2024/01/02 04:47:49;;;;;;;4.05;1.38;;;12.50;99.90;;;;;;7379464;19;20023;-77
2024/01/02 04:50:18;;;;;;;7.75;1.05;;;12.30;99.90;;;;;;7382799;19;20054;-77
2024/01/02 04:52:49;;;;;;;4.93;1.10;;;12.60;99.90;;;;;;7388282;19;20010;-76
2024/01/02 04:55:19;;;;;;;1.50;0.68;;;12.80;99.90;;;;;;7382314;19;20051;-77
2024/01/02 04:57:50;;;;;;;4.65;1.02;;;12.60;99.90;;;;;;7404689;19;20010;-77
2024/01/02 05:00:19;;;;;;;5.03;1.10;;;12.70;99.90;;;;;;7382867;19;20028;-77
2024/01/02 05:02:49;;;;;;;2.42;0.77;;;12.60;99.90;;;;;;7383521;19;20085;-77
2024/01/02 05:05:18;;;;;;;7.15;1.30;;;12.30;99.90;;;;;;7384153;19;20052;-77
2024/01/02 05:07:49;;;;;;;4.00;0.90;;;12.40;99.90;;;;;;7380321;19;19998;-76
2024/01/02 05:10:18;;;;;;;4.15;0.82;;;11.90;99.90;;;;;;7380728;19;20031;-77
2024/01/02 05:12:50;;;;;;;1.77;0.85;;;11.90;99.90;;;;;;7401345;19;20011;-77
2024/01/02 05:15:18;;;;;;;3.95;0.95;;;12.00;99.90;;;;;;7379497;19;20007;-76
2024/01/02 05:17:47;;;;;;;1.73;0.63;;;12.20;99.90;;;;;;7379493;19;20089;-77
2024/01/02 05:20:16;;;;;;;7.18;1.25;;;12.30;99.90;;;;;;7382632;19;20011;-77
2024/01/02 05:22:45;;;;;;;1.35;0.85;;;12.30;99.90;;;;;;7378759;19;20015;-77
2024/01/02 05:25:17;;;;;;;3.10;0.93;;;12.10;99.90;;;;;;7399190;19;20023;-77
2024/01/02 05:27:48;;;;;;;2.33;0.88;;;12.30;99.90;;;;;;7379660;19;20010;-77
2024/01/02 05:30:17;;;;;;;3.90;0.88;;;12.50;99.90;;;;;;7379806;19;20002;-77
2024/01/02 05:32:46;;;;;;;7.43;1.38;;;11.90;99.90;;;;;;7378990;19;20015;-76
2024/01/02 05:35:14;;;;;;;5.22;1.20;;;12.20;99.90;;;;;;7378656;19;20007;-77
2024/01/02 05:37:43;;;;;;;5.07;0.98;;;12.40;99.90;;;;;;7379665;19;20011;-78
2024/01/02 05:40:15;;;;;;;1.95;0.85;;;12.20;99.90;;;;;;7400369;19;20024;-76
2024/01/02 05:42:44;;;;;;;3.55;1.17;;;12.50;99.90;;;;;;7376845;19;20012;-76
2024/01/02 05:45:13;;;;;;;2.72;1.10;;;12.50;99.90;;;;;;7379153;19;20078;-76
2024/01/02 05:47:41;;;;;;;2.85;0.77;;;12.60;99.90;;;;;;7379838;19;19999;-77
2024/01/02 05:50:10;;;;;;;5.63;1.17;;;12.60;99.90;;;;;;7387879;19;20007;-77
2024/01/02 05:52:40;;;;;;;96.85;4.32;;;12.40;99.90;;;;;;7395646;19;20009;-76
2024/01/02 05:55:10;;;;;;;2.95;0.98;;;12.30;99.90;;;;;;7420174;19;20014;-77
2024/01/02 05:57:41;;;;;;;2.85;1.20;;;12.40;99.90;;;;;;7398394;19;20434;-77
2024/01/02 06:00:11;;;;;;;5.45;1.45;;;12.50;99.90;;;;;;7393068;19;20010;-77
2024/01/02 06:02:39;;;;;;;3.97;1.27;;;12.40;99.90;;;;;;7386806;19;20011;-77
2024/01/02 06:05:09;;;;;;;2.70;1.00;;;12.20;99.90;;;;;;7383410;19;20210;-77
2024/01/02 06:07:38;;;;;;;6.65;1.67;;;12.20;99.90;;;;;;7382448;19;20393;-77
2024/01/02 06:10:08;;;;;;;3.13;1.25;;;12.50;99.90;;;;;;7406362;19;20079;-76
2024/01/02 06:12:36;;;;;;;4.18;1.40;;;12.50;99.90;;;;;;7383641;19;20012;-76
2024/01/02 06:15:08;;;;;;;7.90;1.30;;;12.60;99.90;;;;;;7384392;19;20007;-77
2024/01/02 06:17:37;;;;;;;7.00;1.45;;;12.50;99.90;;;;;;7383634;19;20248;-76
2024/01/02 06:20:06;;;;;;;3.60;1.33;;;12.60;99.90;;;;;;7384171;19;20009;-75
2024/01/02 06:22:35;;;;;;;3.05;1.33;;;12.60;99.90;;;;;;7382828;19;20012;-77
2024/01/02 06:25:03;;;;;;;8.65;1.08;;;12.30;99.90;;;;;;7406231;19;20023;-77
2024/01/02 06:27:32;;;;;;;3.00;1.13;;;12.50;99.90;;;;;;7383329;19;20002;-77
2024/01/02 06:30:02;;;;;;;2.58;1.42;;;12.40;99.90;;;;;;7383323;19;20020;-77
2024/01/02 06:32:33;;;;;;;2.30;1.30;;;12.50;99.90;;;;;;7382790;19;20034;-77
2024/01/02 06:35:02;;;;;;;15.05;1.52;;;12.70;99.90;;;;;;7383739;19;20014;-77
2024/01/02 06:37:31;;;;;;;3.33;1.17;;;12.50;99.90;;;;;;7383410;19;20397;-77
2024/01/02 06:40:00;;;;;;;4.90;1.05;;;12.70;99.90;;;;;;7408762;19;20002;-78
2024/01/02 06:42:29;;;;;;;1.15;0.90;;;12.40;99.90;;;;;;7385316;19;20006;-77
2024/01/02 06:44:59;;;;;;;7.13;1.65;;;12.40;99.90;;;;;;7384864;19;20011;-78
2024/01/02 06:47:28;;;;;;;3.17;1.13;;;12.50;99.90;;;;;;7384982;19;20074;-78
2024/01/02 06:49:59;;;;;;;4.72;0.90;;;12.30;99.90;;;;;;7385213;19;20056;-77
2024/01/02 06:52:29;;;;;;;6.28;1.05;;;12.50;99.90;;;;;;7385737;19;20010;-76
2024/01/02 06:54:58;;;;;;;1.70;1.03;;;12.50;99.90;;;;;;7405957;19;20021;-77
2024/01/02 06:57:27;;;;;;;5.35;1.17;;;12.20;99.90;;;;;;7386417;19;20501;-76
2024/01/02 06:59:57;;;;;;;5.18;0.80;;;12.30;99.90;;;;;;7382934;19;20020;-77
2024/01/02 07:02:31;;;;;;;3.15;1.13;;;12.30;99.90;;;;;;7381314;19;20018;-76
2024/01/02 07:05:03;;;;;;;3.35;0.82;;;12.20;99.90;;;;;;7381985;19;20250;-76
2024/01/02 07:07:31;;;;;;;;;;;12.10;99.90;;;;;;7383840;19;20016;-77
2024/01/02 07:10:00;;;;;;;4.43;0.90;;;12.40;99.90;;;;;;7405119;19;19966;-77
2024/01/02 07:12:30;;;;;;;2.90;0.93;;;12.10;99.90;;;;;;7386552;19;20010;-77
2024/01/02 07:14:59;;;;;;;2.00;1.08;;;12.40;99.90;;;;;;7382064;19;20037;-77
2024/01/02 07:17:29;;;;;;;2.28;1.17;;;12.30;99.90;;;;;;7382768;19;20006;-77
2024/01/02 07:19:58;;;;;;;4.07;1.10;;;12.60;99.90;;;;;;7383042;19;20287;-76
2024/01/02 07:22:29;;;;;;;3.75;0.70;;;12.70;99.90;;;;;;7383362;19;20017;-77
2024/01/02 07:24:58;;;;;;;;;;;12.10;99.90;;;;;;7405390;19;20361;-77
2024/01/02 07:27:26;;;;;;;2.97;1.02;;;12.30;99.90;;;;;;7382184;19;19914;-77
2024/01/02 07:29:55;;;;;;;1.17;1.02;;;12.20;99.90;;;;;;7384388;19;20010;-77
2024/01/02 07:32:24;;;;;;;6.57;1.13;;;12.40;99.90;;;;;;7384856;19;20107;-77
2024/01/02 07:34:52;;;;;;;4.93;1.10;;;12.30;99.90;;;;;;7385908;19;20307;-77
2024/01/02 07:37:21;;;;;;;11.35;1.20;;;12.30;99.90;;;;;;7400293;19;19999;-76
2024/01/02 07:39:54;;;;;;;4.22;1.27;;;12.50;99.90;;;;;;7405557;19;20259;-77
2024/01/02 07:42:22;;;;;;;1.95;1.20;;;12.40;99.90;;;;;;7380987;19;20050;-77
2024/01/02 07:44:54;;;;;;;1.95;0.77;;;12.50;99.90;;;;;;7382154;19;20109;-77
2024/01/02 07:47:25;;;;;;;6.25;1.10;;;12.30;99.90;;;;;;7383762;19;20010;-77
2024/01/02 07:49:54;;;;;;;4.32;1.05;;;12.40;99.90;;;;;;7386334;19;20027;-77
2024/01/02 07:52:22;;;;;;;2.72;1.48;;;12.30;99.90;;;;;;7384734;19;20369;-77
2024/01/02 07:54:54;;;;;;;0.90;0.80;;;12.20;99.90;;;;;;7405309;19;20014;-77
2024/01/02 07:57:25;;;;;;;2.95;0.90;;;12.40;99.90;;;;;;7387642;19;20401;-76
2024/01/02 07:59:53;;;;;;;2.90;1.25;;;12.40;99.90;;;;;;7391960;19;20023;-76
2024/01/02 08:02:24;;;;;;;7.35;1.35;;;12.30;99.90;;;;;;7390866;19;20010;-76
2024/01/02 08:04:52;;;;;;;5.45;1.40;;;12.40;99.90;;;;;;7390746;19;20022;-77
2024/01/02 08:07:21;;;;;;;2.70;1.15;;;12.30;99.90;;;;;;7407778;19;20010;-78
2024/01/02 08:09:52;;;;;;;7.22;0.85;;;12.40;99.90;;;;;;7382609;19;20010;-76
2024/01/02 08:12:21;;;;;;;4.97;1.20;;;12.10;99.90;;;;;;7381290;19;20859;-77
2024/01/02 08:14:50;;;;;;;2.38;1.00;;;12.40;99.90;;;;;;7380004;19;20002;-77
2024/01/02 08:17:23;;;;;;;3.63;1.30;;;12.60;99.90;;;;;;7382036;19;20003;-78
2024/01/02 08:19:52;;;;;;;3.40;1.20;;;12.60;99.90;;;;;;7382358;19;20007;-78
2024/01/02 08:22:21;;;;;;;2.58;1.10;;;12.50;99.90;;;;;;7403709;19;20006;-77
2024/01/02 08:24:53;;;;;;;2.63;1.13;;;12.40;99.90;;;;;;7381379;19;20024;-77
2024/01/02 08:27:25;;;;;;;3.42;1.17;;;12.10;99.90;;;;;;7380301;19;20014;-77
2024/01/02 08:29:54;;;;;;;5.72;1.35;;;12.20;99.90;;;;;;7381746;19;20007;-77
2024/01/02 08:32:22;;;;;;;4.05;0.90;;;12.50;99.90;;;;;;7385238;19;20003;-75
2024/01/02 08:34:51;;;;;;;5.70;1.10;;;12.60;99.90;;;;;;7384121;19;19998;-77
2024/01/02 08:37:20;;;;;;;3.92;1.20;;;12.50;99.90;;;;;;7403473;19;20421;-78
2024/01/02 08:39:50;;;;;;;1.58;1.05;;;12.70;99.90;;;;;;7380694;19;19999;-78
2024/01/02 08:42:24;;;;;;;6.78;1.27;;;12.80;99.90;;;;;;7381284;19;20011;-77
2024/01/02 08:44:53;;;;;;;3.70;1.05;;;12.70;99.90;;;;;;7382707;19;20114;-77
2024/01/02 08:47:21;;;;;;;3.33;1.13;;;12.40;99.90;;;;;;7383020;19;20235;-78
2024/01/02 08:49:50;;;;;;;7.63;0.90;;;12.40;99.90;;;;;;7379848;19;20536;-76
2024/01/02 08:52:19;;;;;;;3.63;0.98;;;12.40;99.90;;;;;;7401462;19;20028;-77
2024/01/02 08:54:48;;;;;;;4.25;1.00;;;12.60;99.90;;;;;;7379489;19;20006;-77
2024/01/02 08:57:16;;;;;;;3.55;0.98;;;12.40;99.90;;;;;;7379077;19;20020;-76
2024/01/02 08:59:49;;;;;;;9.57;1.30;;;12.40;99.90;;;;;;7379492;19;20007;-77
2024/01/02 09:02:18;;;;;;;4.00;1.10;;;12.60;99.90;;;;;;7378847;19;20011;-77
2024/01/02 09:04:49;;;;;;;5.03;1.33;;;12.40;99.90;;;;;;7380670;19;20255;-76
2024/01/02 09:07:17;;;;;;;5.55;0.85;;;12.50;99.90;;;;;;7400943;19;20003;-77
2024/01/02 09:09:48;;;;;;;2.63;0.90;;;12.50;99.90;;;;;;7377163;19;20003;-77
2024/01/02 09:12:18;;;;;;;2.22;1.13;;;12.40;99.90;;;;;;7376060;19;20364;-77
2024/01/02 09:14:50;;;;;;;3.03;1.02;;;12.30;99.90;;;;;;7378341;19;20011;-77
2024/01/02 09:17:21;;;;;;;3.88;1.10;;;12.40;99.90;;;;;;7378863;19;20034;-78
2024/01/02 09:19:50;;;;;;;6.15;0.82;;;12.60;99.90;;;;;;7378892;19;20070;-76
2024/01/02 09:22:19;;;;;;;7.10;1.00;;;12.50;99.90;;;;;;7400549;19;20027;-76
2024/01/02 09:24:50;;;;;;;1.38;0.90;;;12.60;99.90;;;;;;7378591;19;20027;-76
2024/01/02 09:27:20;;;;;;;6.22;0.80;;;12.40;99.90;;;;;;7377077;19;20006;-76
2024/01/02 09:29:52;;;;;;;2.05;1.20;;;12.20;99.90;;;;;;7379436;19;20007;-77
2024/01/02 09:32:20;;;;;;;;;;;12.30;99.90;;;;;;7379811;19;20003;-76
2024/01/02 09:34:49;;;;;;;2.47;0.85;;;12.40;99.90;;;;;;7376421;19;19911;-75
2024/01/02 09:37:17;;;;;;;5.82;1.10;;;12.20;99.90;;;;;;7399249;19;20055;-76
2024/01/02 09:39:47;;;;;;;3.75;0.82;;;12.50;99.90;;;;;;7375490;19;20003;-76
2024/01/02 09:42:39;;;;;;;5.80;0.90;;;12.80;99.90;;;;;;7377642;19;20070;-76
2024/01/02 09:45:25;;;;;;;7.93;1.00;;;12.30;99.90;;;;;;7378605;19;20006;-79
2024/01/02 09:48:23;;;;;;;5.43;1.05;;;12.30;99.90;;;;;;7376884;19;20697;-77
2024/01/02 09:51:10;;;;;;;1.60;0.80;;;12.60;99.90;;;;;;7377956;19;20083;-76
2024/01/02 09:54:07;;;;;;;5.45;1.00;;;12.50;99.90;;;;;;7378452;19;20006;-78
2024/01/02 09:56:47;;;;;;;2.10;0.70;;;12.40;99.90;;;;;;7378269;19;20027;-76
2024/01/02 09:59:30;;;;;;;4.85;0.80;;;12.30;99.90;;;;;;7376185;19;20275;-77
2024/01/02 10:02:19;;;;;;;1.77;0.70;;;12.70;99.90;;;;;;7379052;19;20003;-77
2024/01/02 10:05:02;;;;;;;2.33;0.70;;;12.60;99.90;;;;;;7388413;19;20014;-76
2024/01/02 10:07:50;;;;;;;5.90;1.00;;;12.70;99.90;;;;;;7389419;19;20015;-75
2024/01/02 10:10:30;;;;;;;1.33;0.77;;;12.60;99.90;;;;;;7412206;19;20007;-76
2024/01/02 10:13:15;;;;;;;2.40;0.68;;;12.60;99.90;;;;;;7382866;19;20015;-77
2024/01/02 10:15:54;;;;;;;2.78;0.77;;;12.60;99.90;;;;;;7378178;19;20352;-76
2024/01/02 10:18:37;;;;;;;1.35;1.20;;;12.80;99.90;;;;;;7376893;19;20219;-77
2024/01/02 10:21:19;;;;;;;2.38;0.85;;;12.90;99.90;;;;;;7377419;19;20002;-77
2024/01/02 10:23:57;;;;;;;2.00;0.80;;;12.70;99.90;;;;;;7378550;19;20010;-77
2024/01/02 10:26:32;;;;;;;2.92;0.88;;;12.90;99.90;;;;;;7377891;19;20011;-76
2024/01/02 10:29:06;;;;;;;0.70;0.70;;;12.70;99.90;;;;;;7376886;19;20055;-77
2024/01/02 10:31:42;;;;;;;2.83;0.80;;;12.80;99.90;;;;;;7376231;19;20590;-76
2024/01/02 10:34:26;;;;;;;4.22;0.93;;;13.00;99.90;;;;;;7399674;19;20054;-78
2024/01/02 10:37:00;;;;;;;3.72;0.82;;;13.00;99.90;;;;;;7385275;19;20096;-78
2024/01/02 10:39:37;;;;;;;1.20;0.80;;;12.80;99.90;;;;;;7383145;19;20031;-76
2024/01/02 10:42:20;;;;;;;8.40;0.80;;;12.60;99.90;;;;;;7383627;19;20015;-78
2024/01/02 10:44:57;;;;;;;0.98;0.80;;;12.80;99.90;;;;;;7383567;19;20079;-77
2024/01/02 10:47:38;;;;;;;6.68;1.98;;;12.90;99.90;;;;;;7384047;19;20002;-77
2024/01/02 10:50:14;;;;;;;4.18;2.35;;;12.60;99.90;;;;;;7383044;19;20078;-77
2024/01/02 10:52:56;;;;;;;2.67;1.20;;;12.80;99.90;;;;;;7382295;19;20010;-78
2024/01/02 10:55:28;;;;;;;;;;;12.50;99.90;;;;;;7405695;19;20086;-76
2024/01/02 10:58:02;;;;;;;;;;;12.70;99.90;;;;;;7387846;19;19921;-76
2024/01/02 11:00:34;;;;;;;4.97;0.90;;;12.70;99.90;;;;;;7382307;19;20145;-77
2024/01/02 11:03:10;;;;;;;2.30;0.90;;;12.60;99.90;;;;;;7382184;19;20066;-75
2024/01/02 11:05:44;;;;;;;5.97;1.08;;;12.30;99.90;;;;;;7383289;19;20010;-76
2024/01/02 11:08:20;;;;;;;2.33;1.00;;;12.60;99.90;;;;;;7387631;19;20206;-78
2024/01/02 11:10:59;;;;;;;5.03;1.30;;;12.40;99.90;;;;;;7380918;19;19998;-77
2024/01/02 11:13:29;;;;;;;14.02;1.38;;;12.50;99.90;;;;;;7382843;19;20007;-77
2024/01/02 11:16:02;;;;;;;6.25;1.23;;;12.60;99.90;;;;;;7401487;19;20598;-75
2024/01/02 11:18:34;;;;;;;1.17;0.98;;;12.40;99.90;;;;;;7381118;19;20024;-76
2024/01/02 11:21:13;;;;;;;2.33;0.70;;;12.50;99.90;;;;;;7382567;19;20070;-77
2024/01/02 11:23:45;;;;;;;3.10;1.15;;;12.60;99.90;;;;;;7383548;19;20169;-77
2024/01/02 11:26:18;;;;;;;3.67;0.80;;;12.20;99.90;;;;;;7386247;19;20020;-78
2024/01/02 11:28:49;;;;;;;2.13;1.00;;;12.30;99.90;;;;;;7387921;19;20010;-78
2024/01/02 11:31:18;;;;;;;;;;;12.30;99.90;;;;;;7415005;19;20058;-79
2024/01/02 11:34:05;;;;;;;6.07;1.15;;;12.30;99.90;;;;;;7394072;19;20215;-79
2024/01/02 11:36:49;;;;;;;4.25;1.08;;;12.40;99.90;;;;;;7385622;19;20014;-77
2024/01/02 11:39:27;;;;;;;1.80;0.75;;;12.70;99.90;;;;;;7381377;19;20066;-78
2024/01/02 11:42:07;;;;;;;3.60;1.05;;;12.90;99.90;;;;;;7382122;19;20082;-78
2024/01/02 11:44:47;;;;;;;5.57;1.23;;;13.00;99.90;;;;;;7382209;19;20011;-78
2024/01/02 11:47:28;;;;;;;3.13;0.90;;;13.10;99.90;;;;;;7382396;19;20357;-77
2024/01/02 11:50:03;;;;;;;7.45;1.17;;;12.80;99.90;;;;;;7381293;19;20101;-76
2024/01/02 11:52:45;;;;;;;2.53;1.10;;;13.00;99.90;;;;;;7385305;19;20006;-80
2024/01/02 11:55:18;;;;;;;3.13;0.95;;;13.10;99.90;;;;;;7404102;19;20011;-77
2024/01/02 11:57:54;;;;;;;3.45;1.08;;;13.00;99.90;;;;;;7382295;19;20070;-77
2024/01/02 12:00:32;;;;;;;5.13;1.13;;;12.80;99.90;;;;;;7382171;19;20010;-77
2024/01/02 12:03:13;;;;;;;2.28;0.88;;;13.00;99.90;;;;;;7387106;19;20314;-79
2024/01/02 12:05:45;;;;;;;3.65;1.00;;;12.90;99.90;;;;;;7383304;19;20015;-75
2024/01/02 12:08:25;;;;;;;5.95;1.10;;;12.70;99.90;;;;;;7382165;19;20006;-77
2024/01/02 12:11:01;;;;;;;1.42;0.90;;;12.80;99.90;;;;;;7386701;19;20394;-76
2024/01/02 12:13:40;;;;;;;8.23;2.00;;;12.70;99.90;;;;;;7409248;19;20006;-77
2024/01/02 12:16:12;;;;;;;3.30;1.13;;;12.80;99.90;;;;;;7389985;19;20127;-76
2024/01/02 12:18:45;;;;;;;5.55;1.20;;;13.00;99.90;;;;;;7389708;19;20408;-76
2024/01/02 12:21:20;;;;;;;4.30;1.40;;;12.90;99.90;;;;;;7382401;19;20002;-77
2024/01/02 12:23:53;;;;;;;2.05;1.02;;;13.00;99.90;;;;;;7380186;19;20023;-76
2024/01/02 12:26:24;;;;;;;3.45;0.93;;;12.80;99.90;;;;;;7381210;19;20010;-75
2024/01/02 12:28:53;;;;;;;2.63;1.05;;;12.70;99.90;;;;;;7380309;19;20011;-76
2024/01/02 12:31:28;;;;;;;1.25;0.90;;;13.00;99.90;;;;;;7402767;19;20010;-75
2024/01/02 12:34:03;;;;;;;1.58;0.80;;;12.80;99.90;;;;;;7379604;19;20425;-76
2024/01/02 12:36:42;;;;;;;6.75;1.05;;;13.00;99.90;;;;;;7378931;19;20027;-76
2024/01/02 12:39:18;;;;;;;2.75;0.90;;;12.80;99.90;;;;;;7379342;19;20002;-76
2024/01/02 12:41:52;;;;;;;4.63;1.40;;;12.90;99.90;;;;;;7381379;19;20010;-76
2024/01/02 12:44:23;;;;;;;4.43;1.42;;;12.90;99.90;;;;;;7380575;19;20043;-75
2024/01/02 12:46:54;;;;;;;6.75;1.70;;;13.00;99.90;;;;;;7378980;19;19994;-75
2024/01/02 12:49:28;;;;;;;7.13;1.50;;;12.90;99.90;;;;;;7403687;19;20010;-76
2024/01/02 12:52:03;;;;;;;6.80;1.38;;;13.10;99.90;;;;;;7378438;19;20283;-76
2024/01/02 12:54:44;;;;;;;3.75;1.20;;;13.20;99.90;;;;;;7378541;19;20002;-76
2024/01/02 12:57:13;;;;;;;11.02;1.98;;;13.20;99.90;;;;;;7379131;19;20013;-77
2024/01/02 12:59:43;;;;;;;4.13;1.50;;;12.90;99.90;;;;;;7379180;19;20003;-77
2024/01/02 13:02:14;;;;;;;4.68;1.13;;;12.70;99.90;;;;;;7377120;19;20244;-77
2024/01/02 13:04:44;;;;;;;8.35;1.63;;;12.90;99.90;;;;;;7378163;19;20006;-78
2024/01/02 13:07:16;;;;;;;3.55;1.20;;;13.10;99.90;;;;;;7402448;19;20359;-77
2024/01/02 13:09:49;;;;;;;;;;;12.70;99.90;;;;;;7382472;19;20011;-79